createdAt,value
2022-12-03T00:00:43.345Z,21.35
2022-12-03T00:03:10.236Z,21.85
2022-12-03T00:05:37.029Z,20.55
2022-12-03T00:08:03.964Z,22.70
2022-12-03T00:10:31.069Z,23.52
2022-12-03T00:12:57.917Z,22.35
2022-12-03T00:15:24.708Z,21.23
2022-12-03T00:17:51.450Z,21.90
2022-12-03T00:20:23.515Z,20.20
2022-12-03T00:22:50.664Z,24.73
2022-12-03T00:25:18.184Z,21.65
2022-12-03T00:27:45.016Z,22.75
2022-12-03T00:30:12.476Z,23.27
2022-12-03T00:32:39.265Z,21.42
2022-12-03T00:35:06.415Z,24.55
2022-12-03T00:37:35.130Z,20.63
2022-12-03T00:40:03.596Z,21.30
2022-12-03T00:42:30.427Z,24.63
2022-12-03T00:44:57.318Z,25.30
2022-12-03T00:47:24.013Z,21.92
2022-12-03T00:49:51.722Z,24.35
2022-12-03T00:52:18.667Z,23.67
2022-12-03T00:54:45.511Z,21.88
2022-12-03T00:57:12.455Z,23.20
2022-12-03T00:59:39.103Z,22.30
2022-12-03T01:02:05.992Z,26.13
2022-12-03T01:04:33.936Z,22.60
2022-12-03T01:07:01.464Z,22.05
2022-12-03T01:09:28.204Z,21.83
2022-12-03T01:11:54.997Z,24.30
2022-12-03T01:14:21.941Z,24.80
2022-12-03T01:16:49.245Z,18.85
2022-12-03T01:19:17.215Z,23.60
2022-12-03T01:21:50.100Z,25.27
2022-12-03T01:24:18.222Z,22.48
2022-12-03T01:26:45.220Z,24.00
2022-12-03T01:29:12.011Z,24.65
2022-12-03T01:31:57.285Z,21.52
2022-12-03T01:34:24.025Z,24.23
2022-12-03T01:36:52.558Z,25.63
2022-12-03T01:39:19.619Z,23.77
2022-12-03T01:41:48.132Z,23.92
2022-12-03T01:44:19.741Z,23.58
2022-12-03T01:46:47.705Z,20.90
2022-12-03T01:49:19.059Z,23.38
2022-12-03T01:51:46.676Z,23.77
2022-12-03T01:54:20.904Z,24.45
2022-12-03T01:56:48.190Z,23.95
2022-12-03T01:59:18.056Z,23.15
2022-12-03T02:01:45.048Z,25.60
2022-12-03T02:04:16.414Z,23.02
2022-12-03T02:06:44.573Z,22.55
2022-12-03T02:09:12.439Z,23.02
2022-12-03T02:11:44.456Z,24.23
2022-12-03T02:14:16.159Z,22.15
2022-12-03T02:16:43.841Z,23.42
2022-12-03T02:19:21.688Z,24.10
2022-12-03T02:22:04.429Z,23.65
2022-12-03T02:24:56.251Z,25.73
2022-12-03T02:27:23.533Z,26.20
2022-12-03T02:29:50.721Z,21.35
2022-12-03T02:32:17.578Z,23.33
2022-12-03T02:34:45.852Z,25.05
2022-12-03T02:37:18.777Z,23.40
2022-12-03T02:39:54.732Z,23.52
2022-12-03T02:42:37.000Z,21.92
2022-12-03T02:45:26.921Z,22.95
2022-12-03T02:48:02.526Z,23.98
2022-12-03T02:50:32.791Z,22.50
2022-12-03T02:53:02.967Z,23.95
2022-12-03T02:55:36.559Z,23.42
2022-12-03T02:58:05.148Z,24.65
2022-12-03T03:00:32.756Z,24.23
2022-12-03T03:03:00.859Z,23.75
2022-12-03T03:05:27.929Z,24.20
2022-12-03T03:07:56.410Z,23.02
2022-12-03T03:10:24.024Z,23.35
2022-12-03T03:12:54.042Z,24.15
2022-12-03T03:15:21.598Z,24.67
2022-12-03T03:17:48.450Z,25.15
2022-12-03T03:20:15.545Z,24.05
2022-12-03T03:22:43.063Z,23.45
2022-12-03T03:25:15.278Z,26.33
2022-12-03T03:27:42.621Z,26.05
2022-12-03T03:30:11.614Z,25.15
2022-12-03T03:32:39.482Z,20.83
2022-12-03T03:35:07.338Z,25.50
2022-12-03T03:37:34.601Z,25.38
2022-12-03T03:40:01.901Z,23.60
2022-12-03T03:42:28.849Z,24.30
2022-12-03T03:44:55.834Z,24.30
2022-12-03T03:47:23.852Z,25.88
2022-12-03T03:49:50.874Z,26.25
2022-12-03T03:52:19.755Z,25.85
2022-12-03T03:54:47.319Z,25.42
2022-12-03T03:57:14.339Z,27.48
2022-12-03T03:59:41.347Z,23.90
2022-12-03T04:02:19.057Z,25.20
2022-12-03T04:04:46.050Z,24.63
2022-12-03T04:07:13.047Z,24.40
2022-12-03T04:09:39.805Z,27.05
2022-12-03T04:12:25.154Z,26.55
2022-12-03T04:14:52.414Z,24.17
2022-12-03T04:17:19.363Z,24.42
2022-12-03T04:19:46.051Z,25.15
2022-12-03T04:22:32.729Z,26.13
2022-12-03T04:25:18.038Z,25.65
2022-12-03T04:28:11.626Z,23.23
2022-12-03T04:30:38.422Z,26.30
2022-12-03T04:33:23.929Z,26.75
2022-12-03T04:35:50.866Z,26.63
2022-12-03T04:38:17.716Z,22.13
2022-12-03T04:41:03.194Z,26.35
2022-12-03T04:43:34.800Z,25.48
2022-12-03T04:46:02.171Z,25.00
2022-12-03T04:48:29.049Z,24.23
2022-12-03T04:50:55.791Z,27.35
2022-12-03T04:53:22.580Z,26.95
2022-12-03T04:55:49.474Z,22.80
2022-12-03T04:58:16.162Z,23.90
2022-12-03T05:00:42.906Z,26.80
2022-12-03T05:03:09.765Z,23.35
2022-12-03T05:05:36.695Z,26.45
2022-12-03T05:08:03.515Z,25.75
2022-12-03T05:10:30.326Z,21.30
2022-12-03T05:12:57.323Z,25.60
2022-12-03T05:15:24.207Z,23.92
2022-12-03T05:17:50.956Z,23.77
2022-12-03T05:20:36.642Z,27.55
2022-12-03T05:23:03.422Z,24.30
2022-12-03T05:25:30.277Z,27.23
2022-12-03T05:27:56.966Z,28.08
2022-12-03T05:30:23.841Z,27.25
2022-12-03T05:32:50.745Z,26.15
2022-12-03T05:35:17.902Z,26.38
2022-12-03T05:37:44.643Z,26.27
2022-12-03T05:40:12.509Z,29.48
2022-12-03T05:42:54.457Z,23.80
2022-12-03T05:45:26.073Z,26.15
2022-12-03T05:47:54.197Z,25.67
2022-12-03T05:50:22.639Z,23.33
2022-12-03T05:52:49.816Z,25.02
2022-12-03T05:55:17.785Z,25.00
2022-12-03T05:57:44.771Z,27.23
2022-12-03T06:00:22.941Z,26.25
2022-12-03T06:02:49.758Z,25.80
2022-12-03T06:05:19.513Z,20.52
2022-12-03T06:07:47.933Z,24.40
2022-12-03T06:10:17.858Z,23.33
2022-12-03T06:12:45.038Z,26.77
2022-12-03T06:15:12.291Z,23.35
2022-12-03T06:17:38.971Z,20.98
2022-12-03T06:20:06.502Z,23.80
2022-12-03T06:22:33.281Z,25.13
2022-12-03T06:25:06.173Z,26.60
2022-12-03T06:27:33.980Z,22.48
2022-12-03T06:30:00.780Z,23.08
2022-12-03T06:32:27.409Z,22.17
2022-12-03T06:34:54.537Z,24.95
2022-12-03T06:37:21.454Z,21.13
2022-12-03T06:39:48.060Z,23.27
2022-12-03T06:42:14.882Z,22.38
2022-12-03T06:44:41.637Z,22.92
2022-12-03T06:47:08.364Z,22.38
2022-12-03T06:49:35.054Z,21.77
2022-12-03T06:52:01.896Z,23.30
2022-12-03T06:54:28.792Z,22.20
2022-12-03T06:56:55.553Z,23.95
2022-12-03T06:59:22.403Z,24.38
2022-12-03T07:01:49.372Z,23.75
2022-12-03T07:04:16.162Z,20.63
2022-12-03T07:06:42.994Z,21.35
2022-12-03T07:09:09.826Z,23.67
2022-12-03T07:11:42.270Z,23.80
2022-12-03T07:16:38.572Z,22.52
2022-12-03T07:19:06.640Z,21.63
2022-12-03T07:21:33.430Z,21.63
2022-12-03T07:24:00.397Z,23.13
2022-12-03T07:26:27.271Z,23.85
2022-12-03T07:28:54.112Z,24.15
2022-12-03T07:31:20.869Z,22.95
2022-12-03T07:33:47.695Z,22.83
2022-12-03T07:36:14.438Z,27.83
2022-12-03T07:38:41.195Z,24.48
2022-12-03T07:41:08.089Z,23.88
2022-12-03T07:43:34.914Z,27.35
2022-12-03T07:46:01.764Z,22.85
2022-12-03T07:48:28.587Z,27.08
2022-12-03T07:50:55.390Z,28.50
2022-12-03T07:53:22.238Z,25.83
2022-12-03T07:55:49.076Z,27.63
2022-12-03T07:58:15.790Z,26.77
2022-12-03T08:00:42.593Z,27.00
2022-12-03T08:03:09.349Z,26.73
2022-12-03T08:05:36.202Z,26.98
2022-12-03T08:08:03.056Z,26.75
2022-12-03T08:10:29.902Z,26.92
2022-12-03T08:12:58.978Z,28.38
2022-12-03T08:15:31.152Z,26.08
2022-12-03T08:18:12.208Z,29.10
2022-12-03T08:20:41.100Z,28.02
2022-12-03T08:23:19.726Z,27.48
2022-12-03T08:25:48.573Z,30.88
2022-12-03T08:28:21.402Z,30.15
2022-12-03T08:30:59.353Z,32.42
2022-12-03T08:33:36.752Z,28.23
2022-12-03T08:36:13.888Z,28.35
2022-12-03T08:38:40.886Z,29.73
2022-12-03T08:41:14.529Z,31.45
2022-12-03T08:43:43.733Z,29.25
2022-12-03T08:46:17.784Z,28.08
2022-12-03T08:48:49.200Z,28.55
2022-12-03T08:51:25.475Z,29.23
2022-12-03T08:54:01.810Z,31.80
2022-12-03T08:56:30.553Z,27.90
2022-12-03T08:59:18.186Z,25.73
2022-12-03T09:01:47.108Z,27.85
2022-12-03T09:04:27.123Z,28.27
2022-12-03T09:06:54.624Z,29.33
2022-12-03T09:09:22.039Z,28.17
2022-12-03T09:11:49.500Z,26.88
2022-12-03T09:14:18.878Z,28.30
2022-12-03T09:16:46.031Z,30.38
2022-12-03T09:19:12.803Z,26.10
2022-12-03T09:21:39.546Z,32.08
2022-12-03T09:24:07.765Z,29.10
2022-12-03T09:26:34.599Z,30.98
2022-12-03T09:29:01.452Z,29.05
2022-12-03T09:31:28.381Z,30.08
2022-12-03T09:33:55.142Z,29.85
2022-12-03T09:36:22.050Z,27.98
2022-12-03T09:38:48.929Z,30.95
2022-12-03T09:41:15.883Z,32.22
2022-12-03T09:44:03.322Z,29.65
2022-12-03T09:46:30.329Z,30.27
2022-12-03T09:48:57.484Z,33.72
2022-12-03T09:51:31.495Z,29.13
2022-12-03T09:54:00.255Z,26.95
2022-12-03T09:56:27.076Z,32.22
2022-12-03T09:58:54.380Z,29.33
2022-12-03T10:01:21.891Z,27.38
2022-12-03T10:03:51.088Z,30.05
2022-12-03T10:06:23.254Z,28.38
2022-12-03T10:08:54.547Z,28.38
2022-12-03T10:11:24.865Z,29.98
2022-12-03T10:13:54.590Z,30.75
2022-12-03T10:16:21.825Z,27.45
2022-12-03T10:18:54.005Z,30.95
2022-12-03T10:21:25.916Z,30.58
2022-12-03T10:24:17.766Z,33.78
2022-12-03T10:26:46.379Z,33.00
2022-12-03T10:29:34.095Z,32.65
2022-12-03T10:32:07.698Z,37.03
2022-12-03T10:34:36.605Z,33.78
2022-12-03T10:37:12.605Z,32.38
2022-12-03T10:39:56.337Z,35.78
2022-12-03T10:42:28.941Z,34.35
2022-12-03T10:47:34.933Z,34.95
2022-12-03T10:50:04.489Z,32.53
2022-12-03T10:52:31.572Z,35.65
2022-12-03T10:54:58.810Z,36.22
2022-12-03T10:57:25.813Z,35.70
2022-12-03T10:59:52.656Z,36.30
2022-12-03T11:02:22.616Z,35.55
2022-12-03T11:04:50.375Z,34.97
2022-12-03T11:07:21.932Z,33.95
2022-12-03T11:09:51.135Z,31.23
2022-12-03T11:12:19.935Z,31.80
2022-12-03T11:14:54.074Z,32.72
2022-12-03T11:17:50.793Z,38.53
2022-12-03T11:20:22.925Z,34.20
2022-12-03T11:25:26.997Z,28.60
2022-12-03T11:28:12.405Z,34.00
2022-12-03T11:30:51.280Z,32.10
2022-12-03T11:33:41.034Z,28.15
2022-12-03T11:36:11.893Z,28.52
2022-12-03T11:38:39.198Z,30.42
2022-12-03T11:41:21.044Z,28.52
2022-12-03T11:43:56.182Z,23.00
2022-12-03T11:46:27.677Z,24.63
2022-12-03T11:48:57.030Z,24.13
2022-12-03T11:51:26.331Z,24.20
2022-12-03T11:53:55.991Z,25.88
2022-12-03T11:56:28.567Z,23.00
2022-12-03T11:59:02.888Z,22.17
2022-12-03T12:01:40.992Z,23.35
2022-12-03T12:04:26.747Z,20.90
2022-12-03T12:06:53.793Z,23.27
2022-12-03T12:09:53.014Z,18.58
2022-12-03T12:12:42.676Z,22.05
2022-12-03T12:15:41.678Z,22.52
2022-12-03T12:18:42.761Z,23.48
2022-12-03T12:21:43.605Z,21.80
2022-12-03T12:24:30.400Z,20.20
2022-12-03T12:27:01.451Z,20.10
2022-12-03T12:29:28.600Z,19.80
2022-12-03T12:32:20.470Z,19.67
2022-12-03T12:34:49.617Z,21.17
2022-12-03T12:37:36.581Z,21.45
2022-12-03T12:40:12.852Z,23.45
2022-12-03T12:42:50.030Z,21.15
2022-12-03T12:45:18.672Z,23.60
2022-12-03T12:48:09.930Z,24.20
2022-12-03T12:50:44.506Z,23.60
2022-12-03T12:53:11.196Z,24.83
2022-12-03T12:55:41.309Z,24.92
2022-12-03T12:58:15.085Z,22.38
2022-12-03T13:00:42.772Z,22.88
2022-12-03T13:03:12.797Z,21.73
2022-12-03T13:05:46.941Z,21.30
2022-12-03T13:08:31.933Z,23.73
2022-12-03T13:11:01.246Z,21.70
2022-12-03T13:13:43.993Z,19.13
2022-12-03T13:16:25.712Z,23.75
2022-12-03T13:18:57.140Z,25.00
2022-12-03T13:21:43.899Z,20.63
2022-12-03T13:24:59.358Z,24.45
2022-12-03T13:27:29.637Z,25.60
2022-12-03T13:30:00.944Z,25.60
2022-12-03T13:32:38.240Z,23.05
2022-12-03T13:35:16.200Z,23.95
2022-12-03T13:37:43.292Z,21.40
2022-12-03T13:40:31.642Z,26.83
2022-12-03T13:42:59.046Z,25.13
2022-12-03T13:45:36.267Z,23.98
2022-12-03T13:48:23.229Z,26.17
2022-12-03T13:50:52.399Z,25.45
2022-12-03T13:53:26.771Z,25.20
2022-12-03T13:56:22.586Z,26.80
2022-12-03T13:58:49.378Z,26.88
2022-12-03T14:01:16.129Z,31.77
2022-12-03T14:03:42.910Z,33.20
2022-12-03T14:06:09.661Z,37.15
2022-12-03T14:08:37.415Z,31.50
2022-12-03T14:11:04.308Z,38.60
2022-12-03T14:13:31.048Z,42.42
2022-12-03T14:15:57.914Z,42.58
2022-12-03T14:18:24.638Z,36.22
2022-12-03T14:20:51.355Z,29.70
2022-12-03T14:23:18.112Z,39.95
2022-12-03T14:25:45.059Z,39.60
2022-12-03T14:28:11.927Z,38.38
2022-12-03T14:30:38.713Z,36.65
2022-12-03T14:33:05.589Z,40.25
2022-12-03T14:35:32.635Z,36.67
2022-12-03T14:37:59.377Z,38.67
2022-12-03T14:40:26.395Z,35.45
2022-12-03T14:42:53.052Z,29.58
2022-12-03T14:45:20.882Z,33.20
2022-12-03T14:47:47.564Z,34.15
2022-12-03T14:50:14.929Z,30.50
2022-12-03T14:52:41.967Z,29.15
2022-12-03T14:55:09.174Z,30.52
2022-12-03T14:57:35.857Z,26.85
2022-12-03T15:00:02.853Z,29.85
2022-12-03T15:02:30.407Z,27.75
2022-12-03T15:04:57.356Z,28.60
2022-12-03T15:07:24.250Z,26.05
2022-12-03T15:09:51.110Z,24.80
2022-12-03T15:12:17.942Z,29.00
2022-12-03T15:14:44.729Z,28.20
2022-12-03T15:17:11.512Z,28.55
2022-12-03T15:19:38.364Z,26.13
2022-12-03T15:22:05.109Z,22.50
2022-12-03T15:24:31.894Z,25.58
2022-12-03T15:26:58.774Z,25.20
2022-12-03T15:29:25.478Z,24.60
2022-12-03T15:31:52.256Z,25.50
2022-12-03T15:34:22.877Z,23.75
2022-12-03T15:36:50.361Z,23.33
2022-12-03T15:39:17.099Z,25.05
2022-12-03T15:41:43.788Z,22.92
2022-12-03T15:44:10.697Z,22.58
2022-12-03T15:46:37.589Z,23.95
2022-12-03T15:49:04.381Z,24.88
2022-12-03T15:51:31.273Z,27.55
2022-12-03T15:53:58.063Z,24.02
2022-12-03T15:56:24.958Z,31.05
2022-12-03T15:58:53.481Z,26.35
2022-12-03T16:01:20.349Z,28.75
2022-12-03T16:03:47.269Z,31.33
2022-12-03T16:06:14.891Z,31.00
2022-12-03T16:08:41.727Z,31.00
2022-12-03T16:11:08.564Z,39.35
2022-12-03T16:13:35.371Z,33.03
2022-12-03T16:16:02.376Z,34.10
2022-12-03T16:18:29.350Z,37.00
2022-12-03T16:20:56.204Z,40.10
2022-12-03T16:23:23.036Z,37.35
2022-12-03T16:25:49.899Z,40.38
2022-12-03T16:28:16.875Z,36.80
2022-12-03T16:30:43.885Z,32.55
2022-12-03T16:33:10.836Z,38.08
2022-12-03T16:35:37.741Z,33.13
2022-12-03T16:38:04.508Z,36.22
2022-12-03T16:40:31.446Z,37.47
2022-12-03T16:42:58.332Z,36.42
2022-12-03T16:45:44.281Z,39.90
2022-12-03T16:48:11.073Z,37.85
2022-12-03T16:50:38.072Z,40.42
2022-12-03T16:53:04.810Z,38.08
2022-12-03T16:55:31.712Z,37.55
2022-12-03T16:57:58.497Z,39.17
2022-12-03T17:00:25.910Z,35.00
2022-12-03T17:02:52.853Z,38.95
2022-12-03T17:05:19.917Z,35.28
2022-12-03T17:07:46.772Z,36.72
2022-12-03T17:10:13.861Z,32.50
2022-12-03T17:13:07.835Z,37.63
2022-12-03T17:15:27.695Z,33.90
2022-12-03T17:17:54.537Z,38.30
2022-12-03T17:20:21.237Z,31.50
2022-12-03T17:22:47.973Z,35.92
2022-12-03T17:25:14.817Z,37.88
2022-12-03T17:27:45.181Z,38.53
2022-12-03T17:30:13.545Z,37.75
2022-12-03T17:32:40.585Z,36.70
2022-12-03T17:35:08.171Z,38.83
2022-12-03T17:37:35.218Z,33.70
2022-12-03T17:40:02.680Z,37.05
2022-12-03T17:42:29.314Z,41.67
2022-12-03T17:44:56.196Z,40.08
2022-12-03T17:47:22.958Z,41.63
2022-12-03T17:49:49.640Z,35.58
2022-12-03T17:52:16.428Z,41.95
2022-12-03T17:55:08.948Z,42.95
2022-12-03T17:57:29.881Z,36.08
2022-12-03T17:59:57.151Z,38.33
2022-12-03T18:02:24.232Z,39.45
2022-12-03T18:04:51.081Z,41.40
2022-12-03T18:07:17.966Z,44.90
2022-12-03T18:09:44.765Z,37.55
2022-12-03T18:12:11.550Z,46.13
2022-12-03T18:14:38.340Z,35.38
2022-12-03T18:17:05.141Z,40.75
2022-12-03T18:19:31.938Z,41.42
2022-12-03T18:21:58.681Z,38.70
2022-12-03T18:24:25.661Z,37.00
2022-12-03T18:26:52.413Z,40.30
2022-12-03T18:29:19.141Z,37.10
2022-12-03T18:31:46.247Z,39.20
2022-12-03T18:34:14.210Z,38.08
2022-12-03T18:36:41.006Z,38.08
2022-12-03T18:39:10.818Z,36.15
2022-12-03T18:41:37.487Z,36.03
2022-12-03T18:44:09.517Z,33.50
2022-12-03T18:46:53.895Z,41.70
2022-12-03T18:49:21.548Z,34.47
2022-12-03T18:51:48.702Z,36.38
2022-12-03T18:54:16.395Z,32.83
2022-12-03T18:56:43.303Z,30.92
2022-12-03T18:59:11.076Z,30.15
2022-12-03T19:01:37.841Z,32.75
2022-12-03T19:04:04.842Z,31.33
2022-12-03T19:06:32.524Z,38.00
2022-12-03T19:08:59.277Z,35.00
2022-12-03T19:11:26.295Z,32.88
2022-12-03T19:13:53.159Z,34.92
2022-12-03T19:16:20.250Z,36.78
2022-12-03T19:18:47.038Z,32.55
2022-12-03T19:21:16.088Z,35.75
2022-12-03T19:24:04.191Z,31.33
2022-12-03T19:26:30.440Z,36.63
2022-12-03T19:28:57.283Z,31.83
2022-12-03T19:31:24.058Z,32.65
2022-12-03T19:33:51.742Z,36.97
2022-12-03T19:36:27.177Z,36.28
2022-12-03T19:38:57.462Z,32.13
2022-12-03T19:41:27.440Z,34.53
2022-12-03T19:43:55.903Z,34.58
2022-12-03T19:46:24.673Z,38.53
2022-12-03T19:48:51.737Z,35.28
2022-12-03T19:51:35.313Z,37.85
2022-12-03T19:54:04.829Z,34.25
2022-12-03T19:56:31.978Z,32.13
2022-12-03T19:58:59.026Z,33.85
2022-12-03T20:01:29.764Z,34.65
2022-12-03T20:03:58.191Z,37.20
2022-12-03T20:06:28.566Z,32.47
2022-12-03T20:08:57.150Z,34.72
2022-12-03T20:11:27.063Z,36.30
2022-12-03T20:13:56.493Z,36.25
2022-12-03T20:16:24.495Z,35.30
2022-12-03T20:18:55.288Z,36.35
2022-12-03T20:21:22.268Z,36.22
2022-12-03T20:23:49.060Z,32.50
2022-12-03T20:26:18.561Z,33.92
2022-12-03T20:28:46.125Z,36.03
2022-12-03T20:31:15.464Z,31.98
2022-12-03T20:33:48.330Z,32.20
2022-12-03T20:36:17.420Z,34.03
2022-12-03T20:38:45.071Z,33.65
2022-12-03T20:41:14.476Z,34.75
2022-12-03T20:43:41.810Z,33.65
2022-12-03T20:46:09.950Z,31.63
2022-12-03T20:48:37.610Z,32.45
2022-12-03T20:51:09.881Z,35.63
2022-12-03T20:53:37.346Z,34.97
2022-12-03T20:56:05.051Z,32.70
2022-12-03T20:58:32.713Z,34.53
2022-12-03T21:01:20.522Z,32.47
2022-12-03T21:03:48.678Z,33.78
2022-12-03T21:06:15.743Z,32.53
2022-12-03T21:08:43.522Z,33.33
2022-12-03T21:11:15.889Z,32.95
2022-12-03T21:13:43.910Z,35.42
2022-12-03T21:19:24.973Z,33.17
2022-12-03T21:21:51.898Z,34.63
2022-12-03T21:24:18.556Z,33.28
2022-12-03T21:26:45.620Z,34.88
2022-12-03T21:29:12.336Z,33.33
2022-12-03T21:31:39.857Z,34.78
2022-12-03T21:34:08.392Z,34.97
2022-12-03T21:36:35.281Z,38.00
2022-12-03T21:39:02.123Z,31.33
2022-12-03T21:41:29.067Z,36.53
2022-12-03T21:43:55.829Z,34.20
2022-12-03T21:47:09.832Z,34.83
2022-12-03T21:49:09.411Z,36.35
2022-12-03T21:51:36.204Z,31.45
2022-12-03T21:54:04.860Z,32.90
2022-12-03T21:56:32.970Z,34.53
2022-12-03T21:58:59.614Z,36.20
2022-12-03T22:01:26.647Z,35.45
2022-12-03T22:03:53.525Z,33.15
2022-12-03T22:06:21.099Z,37.90
2022-12-03T22:08:49.274Z,35.85
2022-12-03T22:11:18.744Z,33.22
2022-12-03T22:13:45.527Z,36.92
2022-12-03T22:16:15.032Z,37.10
2022-12-03T22:18:42.496Z,35.92
2022-12-03T22:21:12.293Z,31.52
2022-12-03T22:23:39.619Z,35.42
2022-12-03T22:26:09.209Z,32.78
2022-12-03T22:28:35.945Z,35.65
2022-12-03T22:31:07.933Z,36.17
2022-12-03T22:33:36.900Z,35.08
2022-12-03T22:36:18.279Z,36.50
2022-12-03T22:38:47.379Z,38.53
2022-12-03T22:41:14.794Z,35.75
2022-12-03T22:43:41.734Z,36.38
2022-12-03T22:46:14.828Z,37.22
2022-12-03T22:48:42.840Z,39.17
2022-12-03T22:51:14.703Z,36.00
2022-12-03T22:53:41.493Z,37.08
2022-12-03T22:56:08.490Z,35.17
2022-12-03T22:58:37.248Z,41.08
2022-12-03T23:01:04.041Z,35.10
2022-12-03T23:03:31.049Z,40.53
2022-12-03T23:05:57.904Z,44.10
2022-12-03T23:08:24.857Z,39.88
2022-12-03T23:10:52.983Z,35.97
2022-12-03T23:13:20.750Z,40.95
2022-12-03T23:15:51.824Z,40.75
2022-12-03T23:18:19.913Z,40.20
2022-12-03T23:20:51.816Z,38.95
2022-12-03T23:23:20.505Z,38.65
2022-12-03T23:26:04.756Z,36.80
2022-12-03T23:28:33.610Z,44.70
2022-12-03T23:31:00.899Z,44.28
2022-12-03T23:33:28.667Z,39.92
2022-12-03T23:35:55.504Z,38.25
2022-12-03T23:38:22.526Z,38.65
2022-12-03T23:40:49.599Z,44.83
2022-12-03T23:43:16.500Z,38.15
2022-12-03T23:45:43.336Z,41.90
2022-12-03T23:48:10.389Z,38.05
2022-12-03T23:50:41.342Z,38.05
2022-12-03T23:53:08.453Z,43.42
2022-12-03T23:55:39.823Z,40.72
2022-12-03T23:58:06.520Z,39.85
